Virginia, Minnesota
Current Conditions -  °F | °C
As of 4:31 AM on Saturday 25 Oct 2014 (Local Time) from KEVM Reporting Station
Clear Clear  
Wind Chill: 50°   Ceiling: Unl
Heat Index: 50°   Visibility: 10mi
Dew Point: 32°   Wind: 17mph
Humidity: 50%   Direction: 290°WNW
Pressure: 29.83"   Gusts: 24mph
Location:  47.52°N, 92.53°W
Report Text: KEVM 250931Z AUTO 29015G21KT 10SM CLR 10/00 A2983 RMK AO2
Loading
Personal Weather Stations






























Interactive Weather Map
Tropical Storm Tracking
New forecast layout! Learn more

10-Day Weather Forecast

Advertisements
Track Severe Weather on mobile